createdAt,value
2023-05-30T00:02:02.677Z,4.40
2023-05-30T00:04:31.345Z,3.90
2023-05-30T00:06:59.454Z,4.73
2023-05-30T00:09:28.977Z,3.20
2023-05-30T00:11:57.367Z,4.00
2023-05-30T00:14:27.565Z,4.20
2023-05-30T00:16:57.543Z,3.73
2023-05-30T00:19:25.630Z,3.80
2023-05-30T00:21:53.699Z,3.70
2023-05-30T00:24:24.093Z,4.70
2023-05-30T00:26:53.685Z,3.70
2023-05-30T00:29:21.811Z,4.37
2023-05-30T00:31:49.974Z,3.60
2023-05-30T00:34:18.072Z,4.10
2023-05-30T00:36:46.362Z,3.50
2023-05-30T00:39:16.154Z,3.63
2023-05-30T00:41:44.746Z,4.00
2023-05-30T00:44:14.202Z,4.30
2023-05-30T00:46:42.584Z,3.80
2023-05-30T00:49:11.088Z,3.40
2023-05-30T00:51:39.241Z,4.23
2023-05-30T00:54:08.691Z,3.70
2023-05-30T00:56:37.553Z,3.80
2023-05-30T00:59:05.721Z,4.33
2023-05-30T01:01:35.223Z,4.00
2023-05-30T01:04:03.807Z,4.50
2023-05-30T01:06:33.424Z,3.70
2023-05-30T01:09:07.914Z,3.70
2023-05-30T01:11:43.043Z,4.50
2023-05-30T01:14:15.853Z,4.10
2023-05-30T01:16:49.184Z,4.80
2023-05-30T01:19:51.600Z,4.43
2023-05-30T01:22:31.341Z,4.80
2023-05-30T01:25:14.792Z,4.27
2023-05-30T01:27:55.804Z,4.70
2023-05-30T01:30:26.491Z,4.43
2023-05-30T01:32:55.125Z,4.40
2023-05-30T01:35:24.235Z,5.37
2023-05-30T01:37:52.295Z,4.53
2023-05-30T01:40:24.825Z,4.70
2023-05-30T01:42:59.290Z,4.53
2023-05-30T01:45:36.703Z,4.53
2023-05-30T01:48:12.174Z,4.70
2023-05-30T01:50:44.660Z,4.50
2023-05-30T01:53:16.248Z,5.27
2023-05-30T01:55:46.664Z,3.87
2023-05-30T01:58:21.856Z,4.17
2023-05-30T02:00:51.369Z,4.33
2023-05-30T02:03:19.795Z,4.40
2023-05-30T02:05:47.938Z,4.47
2023-05-30T02:08:16.061Z,3.87
2023-05-30T02:10:44.168Z,5.40
2023-05-30T02:13:12.179Z,4.33
2023-05-30T02:15:41.548Z,4.73
2023-05-30T02:18:11.112Z,4.13
2023-05-30T02:20:39.187Z,4.40
2023-05-30T02:23:07.174Z,4.53
2023-05-30T02:25:35.246Z,4.00
2023-05-30T02:28:03.232Z,4.30
2023-05-30T02:30:31.281Z,5.27
2023-05-30T02:33:00.832Z,4.80
2023-05-30T02:35:28.855Z,4.23
2023-05-30T02:37:56.880Z,4.60
2023-05-30T02:40:24.924Z,5.67
2023-05-30T02:42:53.069Z,4.50
2023-05-30T02:45:21.013Z,4.70
2023-05-30T02:47:49.136Z,5.10
2023-05-30T02:50:18.953Z,5.53
2023-05-30T02:52:47.052Z,5.43
2023-05-30T02:55:15.098Z,5.37
2023-05-30T02:57:43.744Z,7.37
2023-05-30T03:00:13.319Z,5.50
2023-05-30T03:02:42.641Z,3.90
2023-05-30T03:05:11.616Z,4.27
2023-05-30T03:07:41.039Z,6.30
2023-05-30T03:10:09.482Z,5.10
2023-05-30T03:12:37.617Z,6.50
2023-05-30T03:15:07.870Z,6.27
2023-05-30T03:17:35.968Z,4.13
2023-05-30T03:20:04.139Z,5.17
2023-05-30T03:22:32.296Z,5.10
2023-05-30T03:25:01.718Z,5.00
2023-05-30T03:27:29.709Z,4.80
2023-05-30T03:29:58.176Z,5.10
2023-05-30T03:32:26.535Z,4.63
2023-05-30T03:34:55.881Z,4.73
2023-05-30T03:37:23.927Z,4.10
2023-05-30T03:39:52.014Z,4.60
2023-05-30T03:42:21.383Z,7.40
2023-05-30T03:44:49.370Z,4.20
2023-05-30T03:47:17.361Z,4.77
2023-05-30T03:49:45.364Z,3.80
2023-05-30T03:52:13.591Z,4.70
2023-05-30T03:54:41.698Z,4.47
2023-05-30T03:57:09.680Z,5.03
2023-05-30T03:59:40.463Z,5.80
2023-05-30T04:02:08.529Z,5.33
2023-05-30T04:04:37.085Z,5.30
2023-05-30T04:07:05.387Z,5.50
2023-05-30T04:09:33.338Z,6.00
2023-05-30T04:12:02.312Z,5.30
2023-05-30T04:14:30.327Z,6.00
2023-05-30T04:16:59.685Z,5.67
2023-05-30T04:19:27.728Z,5.50
2023-05-30T04:21:55.889Z,6.20
2023-05-30T04:24:23.909Z,5.70
2023-05-30T04:26:51.921Z,5.97
2023-05-30T04:29:21.759Z,9.17
2023-05-30T04:31:50.425Z,6.20
2023-05-30T04:34:20.025Z,6.00
2023-05-30T04:36:48.084Z,5.97
2023-05-30T04:39:16.154Z,5.67
2023-05-30T04:41:44.125Z,5.20
2023-05-30T04:44:12.098Z,5.30
2023-05-30T04:46:40.137Z,5.90
2023-05-30T04:49:08.232Z,5.27
2023-05-30T04:51:38.284Z,5.57
2023-05-30T04:54:06.377Z,5.57
2023-05-30T04:56:34.399Z,5.20
2023-05-30T04:59:02.620Z,5.33
2023-05-30T05:01:30.668Z,5.63
2023-05-30T05:03:58.810Z,6.20
2023-05-30T05:06:27.005Z,5.67
2023-05-30T05:08:57.615Z,6.53
2023-05-30T05:11:26.749Z,6.53
2023-05-30T05:13:54.769Z,6.47
2023-05-30T05:16:22.893Z,5.30
2023-05-30T05:18:51.521Z,6.47
2023-05-30T05:21:19.478Z,6.40
2023-05-30T05:23:47.516Z,5.77
2023-05-30T05:26:16.852Z,6.27
2023-05-30T05:28:44.818Z,6.53
2023-05-30T05:31:12.788Z,5.90
2023-05-30T05:33:40.828Z,6.13
2023-05-30T05:36:08.935Z,6.10
2023-05-30T05:38:36.939Z,5.60
2023-05-30T05:41:04.950Z,6.00
2023-05-30T05:43:34.290Z,5.77
2023-05-30T05:46:02.270Z,5.93
2023-05-30T05:48:30.293Z,5.53
2023-05-30T05:50:58.518Z,6.80
2023-05-30T05:53:26.679Z,5.23
2023-05-30T05:55:57.493Z,5.20
2023-05-30T05:58:25.821Z,5.80
2023-05-30T06:00:55.493Z,5.10
2023-05-30T06:03:23.647Z,4.90
2023-05-30T06:05:51.851Z,5.23
2023-05-30T06:08:20.129Z,6.00
2023-05-30T06:10:48.225Z,5.87
2023-05-30T06:13:16.845Z,5.30
2023-05-30T06:15:45.024Z,6.27
2023-05-30T06:18:14.494Z,5.27
2023-05-30T06:20:42.562Z,5.03
2023-05-30T06:23:10.609Z,5.50
2023-05-30T06:25:38.698Z,5.80
2023-05-30T06:28:06.716Z,6.03
2023-05-30T06:30:34.804Z,5.97
2023-05-30T06:33:02.813Z,4.77
2023-05-30T06:35:32.128Z,5.23
2023-05-30T06:38:00.161Z,5.50
2023-05-30T06:40:28.182Z,6.40
2023-05-30T06:42:56.170Z,6.07
2023-05-30T06:45:24.192Z,5.80
2023-05-30T06:47:52.237Z,5.33
2023-05-30T06:50:20.538Z,5.87
2023-05-30T06:52:49.961Z,6.70
2023-05-30T06:55:17.994Z,7.20
2023-05-30T06:57:48.698Z,6.50
2023-05-30T07:00:18.499Z,5.83
2023-05-30T07:02:47.491Z,5.83
2023-05-30T07:05:15.547Z,5.60
2023-05-30T07:07:44.210Z,5.90
2023-05-30T07:10:14.730Z,8.03
2023-05-30T07:12:42.721Z,6.13
2023-05-30T07:15:11.644Z,5.50
2023-05-30T07:17:39.718Z,5.73
2023-05-30T07:20:09.584Z,6.60
2023-05-30T07:22:38.843Z,6.50
2023-05-30T07:25:07.749Z,7.40
2023-05-30T07:27:37.207Z,5.47
2023-05-30T07:30:06.057Z,6.50
2023-05-30T07:32:34.347Z,6.60
2023-05-30T07:35:02.393Z,5.27
2023-05-30T07:37:30.420Z,6.90
2023-05-30T07:39:58.437Z,5.80
2023-05-30T07:42:28.689Z,5.35
2023-05-30T07:44:58.007Z,6.00
2023-05-30T07:47:26.332Z,5.10
2023-05-30T07:49:54.305Z,5.60
2023-05-30T07:52:22.326Z,5.83
2023-05-30T07:54:50.350Z,5.97
2023-05-30T07:57:19.005Z,5.60
2023-05-30T07:59:49.585Z,7.00
2023-05-30T08:02:19.373Z,5.00
2023-05-30T08:04:47.527Z,6.00
2023-05-30T08:07:15.590Z,5.87
2023-05-30T08:09:43.561Z,5.80
2023-05-30T08:12:18.808Z,5.80
2023-05-30T08:14:47.286Z,5.20
2023-05-30T08:17:17.360Z,5.60
2023-05-30T08:19:46.736Z,5.17
2023-05-30T08:22:14.819Z,5.40
2023-05-30T08:24:42.846Z,5.27
2023-05-30T08:27:11.688Z,5.00
2023-05-30T08:29:42.190Z,5.13
2023-05-30T08:32:10.378Z,4.83
2023-05-30T08:34:39.742Z,4.83
2023-05-30T08:37:09.625Z,4.70
2023-05-30T08:39:37.604Z,5.25
2023-05-30T08:42:07.815Z,5.47
2023-05-30T08:44:36.057Z,4.87
2023-05-30T08:47:04.226Z,4.97
2023-05-30T08:49:35.179Z,4.60
2023-05-30T08:52:05.578Z,5.50
2023-05-30T08:54:42.520Z,5.23
2023-05-30T08:57:16.803Z,4.27
2023-05-30T08:59:45.818Z,4.63
2023-05-30T09:02:15.508Z,4.90
2023-05-30T09:04:44.593Z,4.77
2023-05-30T09:07:16.760Z,4.53
2023-05-30T09:09:48.042Z,4.37
2023-05-30T09:12:16.273Z,4.30
2023-05-30T09:14:44.264Z,4.17
2023-05-30T09:17:12.624Z,4.93
2023-05-30T09:19:41.222Z,4.90
2023-05-30T09:22:09.444Z,4.67
2023-05-30T09:25:01.378Z,4.37
2023-05-30T09:27:31.259Z,4.70
2023-05-30T09:30:06.778Z,4.40
2023-05-30T09:32:35.984Z,7.13
2023-05-30T09:35:06.807Z,4.50
2023-05-30T09:37:39.251Z,4.97
2023-05-30T09:40:11.162Z,4.30
2023-05-30T09:42:44.717Z,4.83
2023-05-30T09:45:14.404Z,5.10
2023-05-30T09:47:45.662Z,4.63
2023-05-30T09:50:15.304Z,4.73
2023-05-30T09:52:44.133Z,4.95
2023-05-30T09:55:15.752Z,4.83
2023-05-30T09:57:49.848Z,5.37
2023-05-30T10:00:19.475Z,5.43
2023-05-30T10:02:54.886Z,5.33
2023-05-30T10:05:25.051Z,4.57
2023-05-30T10:07:55.254Z,4.90
2023-05-30T10:10:25.384Z,5.10
2023-05-30T10:12:54.581Z,4.87
2023-05-30T10:15:25.236Z,4.80
2023-05-30T10:17:58.490Z,5.68
2023-05-30T10:20:29.036Z,4.70
2023-05-30T10:22:58.306Z,5.00
2023-05-30T10:25:29.985Z,5.20
2023-05-30T10:28:02.330Z,4.60
2023-05-30T10:30:31.909Z,4.33
2023-05-30T10:33:08.028Z,4.83
2023-05-30T10:35:37.113Z,4.37
2023-05-30T10:38:08.295Z,4.90
2023-05-30T10:40:45.845Z,4.28
2023-05-30T10:43:24.512Z,4.73
2023-05-30T10:46:05.382Z,4.47
2023-05-30T10:48:45.168Z,4.10
2023-05-30T10:51:14.701Z,4.10
2023-05-30T10:53:43.850Z,4.73
2023-05-30T10:56:40.712Z,4.72
2023-05-30T10:59:16.246Z,5.20
2023-05-30T11:02:00.700Z,5.43
2023-05-30T11:04:31.979Z,4.17
2023-05-30T11:07:00.550Z,4.97
2023-05-30T11:09:29.278Z,4.63
2023-05-30T11:11:59.808Z,4.43
2023-05-30T11:14:29.448Z,4.60
2023-05-30T11:17:01.119Z,4.13
2023-05-30T11:19:30.168Z,4.23
2023-05-30T11:22:00.149Z,4.17
2023-05-30T11:24:29.123Z,3.87
2023-05-30T11:27:00.938Z,4.17
2023-05-30T11:29:33.478Z,4.33
2023-05-30T11:32:02.668Z,4.80
2023-05-30T11:34:30.758Z,4.20
2023-05-30T11:36:59.385Z,4.10
2023-05-30T11:39:27.560Z,4.87
2023-05-30T11:41:56.339Z,4.63
2023-05-30T11:44:25.779Z,4.20
2023-05-30T11:47:01.437Z,4.40
2023-05-30T11:49:29.702Z,4.77
2023-05-30T11:51:57.829Z,5.13
2023-05-30T11:54:27.046Z,4.47
2023-05-30T11:56:56.891Z,4.03
2023-05-30T11:59:27.384Z,4.40
2023-05-30T12:01:57.453Z,4.40
2023-05-30T12:04:30.908Z,4.20
2023-05-30T12:07:00.488Z,4.50
2023-05-30T12:09:28.932Z,4.40
2023-05-30T12:11:58.589Z,4.90
2023-05-30T12:14:39.942Z,3.95
2023-05-30T12:17:13.016Z,4.73
2023-05-30T12:19:42.952Z,4.97
2023-05-30T12:22:12.384Z,4.20
2023-05-30T12:24:40.915Z,3.90
2023-05-30T12:27:17.803Z,3.90
2023-05-30T12:29:47.417Z,3.60
2023-05-30T12:32:15.505Z,4.10
2023-05-30T12:34:46.641Z,4.50
2023-05-30T12:37:16.280Z,5.80
2023-05-30T12:39:49.063Z,4.43
2023-05-30T12:42:22.435Z,4.43
2023-05-30T12:44:54.145Z,4.90
2023-05-30T12:47:22.542Z,4.20
2023-05-30T12:49:51.170Z,4.50
2023-05-30T12:52:21.934Z,4.17
2023-05-30T12:54:51.110Z,4.00
2023-05-30T12:57:20.857Z,3.70
2023-05-30T12:59:50.801Z,4.03
2023-05-30T13:02:21.337Z,3.47
2023-05-30T13:04:49.547Z,3.70
2023-05-30T13:07:17.557Z,3.17
2023-05-30T13:09:45.808Z,3.40
2023-05-30T13:12:14.794Z,4.10
2023-05-30T13:14:44.444Z,4.80
2023-05-30T13:17:14.259Z,3.40
2023-05-30T13:19:43.018Z,3.90
2023-05-30T13:22:13.366Z,3.70
2023-05-30T13:24:41.966Z,3.60
2023-05-30T13:27:10.447Z,3.50
2023-05-30T13:29:38.478Z,3.50
2023-05-30T13:32:08.591Z,3.20
2023-05-30T13:34:38.087Z,3.63
2023-05-30T13:37:07.494Z,3.60
2023-05-30T13:39:35.871Z,3.33
2023-05-30T13:42:04.108Z,3.50
2023-05-30T13:44:32.176Z,3.27
2023-05-30T13:47:00.418Z,3.50
2023-05-30T13:49:33.924Z,3.33
2023-05-30T13:52:04.446Z,3.88
2023-05-30T13:54:32.832Z,3.27
2023-05-30T13:57:00.895Z,3.23
2023-05-30T13:59:28.944Z,3.33
2023-05-30T14:01:57.314Z,3.00
2023-05-30T14:04:25.533Z,3.60
2023-05-30T14:06:53.605Z,3.03
2023-05-30T14:09:23.373Z,3.10
2023-05-30T14:11:51.985Z,3.20
2023-05-30T14:14:20.530Z,3.67
2023-05-30T14:16:48.902Z,3.47
2023-05-30T14:19:17.114Z,3.37
2023-05-30T14:21:45.278Z,2.90
2023-05-30T14:24:13.332Z,2.97
2023-05-30T14:26:43.303Z,2.90
2023-05-30T14:29:11.878Z,3.20
2023-05-30T14:31:40.025Z,3.40
2023-05-30T14:34:08.789Z,3.20
2023-05-30T14:36:37.542Z,3.20
2023-05-30T14:39:06.169Z,3.80
2023-05-30T14:41:34.177Z,2.63
2023-05-30T14:44:04.509Z,2.80
2023-05-30T14:46:32.870Z,3.20
2023-05-30T14:49:00.889Z,3.83
2023-05-30T14:51:28.903Z,3.00
2023-05-30T14:53:56.926Z,4.37
2023-05-30T14:56:25.056Z,2.90
2023-05-30T14:58:53.026Z,3.33
2023-05-30T15:01:32.153Z,3.17
2023-05-30T15:04:10.419Z,3.13
2023-05-30T15:06:38.560Z,3.20
2023-05-30T15:09:06.602Z,3.47
2023-05-30T15:11:35.474Z,3.60
2023-05-30T15:14:03.777Z,3.33
2023-05-30T15:16:33.943Z,3.47
2023-05-30T15:19:02.437Z,3.20
2023-05-30T15:21:30.453Z,3.03
2023-05-30T15:23:58.489Z,2.47
2023-05-30T15:26:28.178Z,3.10
2023-05-30T15:28:56.342Z,2.95
2023-05-30T15:31:25.074Z,2.80
2023-05-30T15:33:55.200Z,3.03
2023-05-30T15:36:23.485Z,3.23
2023-05-30T15:38:51.608Z,3.07
2023-05-30T15:41:19.615Z,2.50
2023-05-30T15:43:47.859Z,3.07
2023-05-30T15:46:18.758Z,3.70
2023-05-30T15:48:47.263Z,3.63
2023-05-30T15:51:16.621Z,3.40
2023-05-30T15:53:44.611Z,3.40
2023-05-30T15:56:13.248Z,3.63
2023-05-30T15:58:41.297Z,3.00
2023-05-30T16:01:09.524Z,3.33
2023-05-30T16:03:39.113Z,2.70
2023-05-30T16:06:07.569Z,3.10
2023-05-30T16:08:40.151Z,2.80
2023-05-30T16:11:08.127Z,2.90
2023-05-30T16:13:37.857Z,3.00
2023-05-30T16:16:06.148Z,3.47
2023-05-30T16:18:34.148Z,3.27
2023-05-30T16:21:02.459Z,3.10
2023-05-30T16:23:30.700Z,3.43
2023-05-30T16:26:00.101Z,3.43
2023-05-30T16:28:28.288Z,2.87
2023-05-30T16:30:56.341Z,3.17
2023-05-30T16:33:24.408Z,3.60
2023-05-30T16:36:07.789Z,3.07
2023-05-30T16:38:38.049Z,2.88
2023-05-30T16:41:13.138Z,3.03
2023-05-30T16:43:43.199Z,3.13
2023-05-30T16:46:11.568Z,3.20
2023-05-30T16:48:39.653Z,3.47
2023-05-30T16:51:07.828Z,3.60
2023-05-30T16:53:36.430Z,2.93
2023-05-30T16:56:16.647Z,3.57
2023-05-30T16:58:45.757Z,3.03
2023-05-30T17:01:14.514Z,2.90
2023-05-30T17:03:42.850Z,3.33
2023-05-30T17:06:11.944Z,3.83
2023-05-30T17:08:40.186Z,3.13
2023-05-30T17:11:08.200Z,3.33
2023-05-30T17:13:38.237Z,3.50
2023-05-30T17:16:08.407Z,3.37
2023-05-30T17:18:36.722Z,3.47
2023-05-30T17:21:04.984Z,3.10
2023-05-30T17:23:33.925Z,2.73
2023-05-30T17:26:03.599Z,2.50
2023-05-30T17:28:32.105Z,3.63
2023-05-30T17:31:02.335Z,3.40
2023-05-30T17:33:30.942Z,3.28
2023-05-30T17:35:58.982Z,2.70
2023-05-30T17:38:27.295Z,2.80
2023-05-30T17:40:55.361Z,2.93
2023-05-30T17:43:24.228Z,2.60
2023-05-30T17:45:52.753Z,2.97
2023-05-30T17:48:22.939Z,3.23
2023-05-30T17:50:51.489Z,3.08
2023-05-30T17:53:19.856Z,3.40
2023-05-30T17:55:50.178Z,3.40
2023-05-30T17:58:18.757Z,3.67
2023-05-30T18:00:47.904Z,2.87
2023-05-30T18:03:18.287Z,3.40
2023-05-30T18:05:47.784Z,3.00
2023-05-30T18:08:17.532Z,3.33
2023-05-30T18:10:46.096Z,2.58
2023-05-30T18:13:15.122Z,3.10
2023-05-30T18:15:45.180Z,2.30
2023-05-30T18:18:15.261Z,3.30
2023-05-30T18:20:43.760Z,3.93
2023-05-30T18:23:13.427Z,3.97
2023-05-30T18:25:42.281Z,2.60
2023-05-30T18:28:11.171Z,2.90
2023-05-30T18:30:40.571Z,3.70
2023-05-30T18:33:08.839Z,3.00
2023-05-30T18:35:36.893Z,3.03
2023-05-30T18:38:05.082Z,3.53
2023-05-30T18:40:34.505Z,3.10
2023-05-30T18:43:02.548Z,3.03
2023-05-30T18:45:31.066Z,2.50
2023-05-30T18:47:59.353Z,3.00
2023-05-30T18:50:27.691Z,3.40
2023-05-30T18:52:55.975Z,3.40
2023-05-30T18:55:27.000Z,3.40
2023-05-30T18:57:57.428Z,3.23
2023-05-30T19:00:25.909Z,3.13
2023-05-30T19:02:55.073Z,3.13
2023-05-30T19:05:23.261Z,2.93
2023-05-30T19:07:56.442Z,3.00
2023-05-30T19:10:24.703Z,3.33
2023-05-30T19:12:52.836Z,3.07
2023-05-30T19:15:22.331Z,2.77
2023-05-30T19:17:50.433Z,3.43
2023-05-30T19:20:18.717Z,2.60
2023-05-30T19:22:46.909Z,3.10
2023-05-30T19:25:15.070Z,3.00
2023-05-30T19:27:43.155Z,2.83
2023-05-30T19:30:11.626Z,3.37
2023-05-30T19:32:41.032Z,3.47
2023-05-30T19:35:09.812Z,3.10
2023-05-30T19:37:37.879Z,2.77
2023-05-30T19:40:06.501Z,3.17
2023-05-30T19:42:34.620Z,3.27
2023-05-30T19:45:02.685Z,3.50
2023-05-30T19:47:30.787Z,2.80
2023-05-30T19:50:00.246Z,3.63
2023-05-30T19:52:28.293Z,3.47
2023-05-30T19:54:56.304Z,3.50
2023-05-30T19:57:24.357Z,3.40
2023-05-30T19:59:52.411Z,3.10
2023-05-30T20:02:20.422Z,3.43
2023-05-30T20:04:48.404Z,3.20
2023-05-30T20:07:17.955Z,3.20
2023-05-30T20:09:45.964Z,3.60
2023-05-30T20:12:14.061Z,3.43
2023-05-30T20:14:42.087Z,2.97
2023-05-30T20:17:10.103Z,2.97
2023-05-30T20:19:38.121Z,3.27
2023-05-30T20:22:06.633Z,3.13
2023-05-30T20:24:35.972Z,3.37
2023-05-30T20:27:04.237Z,3.33
2023-05-30T20:29:32.239Z,3.47
2023-05-30T20:32:01.319Z,3.20
2023-05-30T20:34:29.542Z,3.83
2023-05-30T20:36:57.658Z,3.10
2023-05-30T20:39:25.676Z,3.30
2023-05-30T20:41:55.046Z,3.07
2023-05-30T20:44:23.106Z,3.10
2023-05-30T20:46:51.141Z,3.00
2023-05-30T20:49:19.203Z,3.10
2023-05-30T20:51:47.324Z,4.07
2023-05-30T20:54:15.593Z,3.33
2023-05-30T20:56:43.628Z,3.70
2023-05-30T20:59:12.968Z,3.50
2023-05-30T21:01:43.453Z,3.63
2023-05-30T21:04:11.513Z,3.30
2023-05-30T21:06:39.536Z,3.10
2023-05-30T21:09:07.822Z,3.17
2023-05-30T21:11:35.889Z,3.27
2023-05-30T21:14:03.919Z,7.33
2023-05-30T21:16:33.323Z,3.50
2023-05-30T21:19:01.326Z,3.23
2023-05-30T21:21:29.392Z,2.90
2023-05-30T21:23:57.329Z,2.90
2023-05-30T21:26:25.550Z,2.93
2023-05-30T21:28:53.596Z,3.17
2023-05-30T21:31:21.597Z,2.73
2023-05-30T21:33:50.966Z,2.90
2023-05-30T21:36:19.495Z,3.33
2023-05-30T21:38:47.684Z,2.80
2023-05-30T21:41:15.729Z,3.40
2023-05-30T21:43:43.715Z,2.80
2023-05-30T21:46:11.735Z,3.23
2023-05-30T21:48:39.813Z,3.80
2023-05-30T21:51:09.246Z,3.30
2023-05-30T21:53:37.406Z,3.30
2023-05-30T21:56:05.794Z,3.40
2023-05-30T21:58:37.228Z,2.90
2023-05-30T22:01:05.430Z,3.47
2023-05-30T22:03:34.309Z,3.60
2023-05-30T22:06:02.438Z,3.20
2023-05-30T22:08:31.899Z,3.50
2023-05-30T22:11:00.247Z,3.40
2023-05-30T22:13:28.572Z,3.03
2023-05-30T22:15:56.658Z,3.23
2023-05-30T22:18:24.713Z,3.50
2023-05-30T22:20:52.847Z,3.30
2023-05-30T22:23:20.957Z,3.10
2023-05-30T22:25:50.436Z,3.33
2023-05-30T22:28:18.447Z,3.20
2023-05-30T22:30:46.751Z,3.90
2023-05-30T22:33:14.744Z,3.20
2023-05-30T22:35:43.061Z,4.13
2023-05-30T22:38:11.117Z,3.40
2023-05-30T22:40:39.111Z,3.90
2023-05-30T22:43:08.443Z,4.10
2023-05-30T22:45:36.463Z,3.30
2023-05-30T22:48:04.612Z,3.30
2023-05-30T22:50:34.381Z,3.80
2023-05-30T22:53:02.691Z,3.67
2023-05-30T22:55:30.752Z,3.80
2023-05-30T22:57:59.297Z,3.70
2023-05-30T23:00:28.928Z,4.33
2023-05-30T23:02:57.086Z,3.03
2023-05-30T23:05:25.168Z,3.60
2023-05-30T23:07:53.160Z,3.70
2023-05-30T23:10:23.100Z,3.50
2023-05-30T23:12:51.545Z,3.40
2023-05-30T23:15:19.530Z,3.27
2023-05-30T23:17:48.925Z,4.10
2023-05-30T23:20:17.282Z,3.67
2023-05-30T23:22:45.935Z,3.40
2023-05-30T23:25:14.004Z,3.87
2023-05-30T23:27:42.044Z,3.63
2023-05-30T23:30:10.957Z,3.53
2023-05-30T23:32:39.109Z,3.90
2023-05-30T23:35:09.523Z,3.20
2023-05-30T23:37:37.550Z,3.40
2023-05-30T23:40:06.440Z,2.63
2023-05-30T23:42:34.438Z,3.03
2023-05-30T23:45:02.409Z,4.07
2023-05-30T23:47:30.662Z,4.73
2023-05-30T23:49:58.716Z,3.50
2023-05-30T23:52:28.216Z,4.07
2023-05-30T23:54:56.199Z,3.40
2023-05-30T23:57:24.240Z,2.90
2023-05-30T23:59:52.246Z,2.80
